Time;durP1;ratioP1;P1;durP2;ratioP2;P2;SDS_P1;SDS_P2;PMS_P1;PMS_P2;Temp;Humidity;BMP_temperature;BMP_pressure;BME280_temperature;BME280_humidity;BME280_pressure;Samples;Min_cycle;Max_cycle;Signal;HPM_P1;HPM_P2
2023/08/04 00:00:54;;;;;;;0.30;0.30;;;20.50;99.90;;;;;;5129085;27;20703;-65
2023/08/04 00:03:22;;;;;;;0.50;0.50;;;20.40;99.90;;;;;;5147267;27;20194;-66
2023/08/04 00:05:50;;;;;;;0.60;0.55;;;20.40;99.90;;;;;;5144185;27;20279;-66
2023/08/04 00:08:17;;;;;;;0.60;0.60;;;20.40;99.90;;;;;;5145026;27;20213;-66
2023/08/04 00:10:44;;;;;;;0.50;0.50;;;20.40;99.90;;;;;;5144380;27;20627;-66
2023/08/04 00:13:11;;;;;;;0.88;0.60;;;20.40;99.90;;;;;;5133557;27;20203;-66
2023/08/04 00:15:39;;;;;;;0.57;0.57;;;20.40;99.90;;;;;;5145833;27;20221;-65
2023/08/04 00:18:06;;;;;;;0.70;0.52;;;20.40;99.90;;;;;;5146577;27;20195;-65
2023/08/04 00:20:34;;;;;;;0.50;0.50;;;20.40;99.90;;;;;;5149903;27;20247;-65
2023/08/04 00:23:01;;;;;;;0.47;0.45;;;20.40;99.90;;;;;;5146975;27;20190;-65
2023/08/04 00:25:31;;;;;;;0.60;0.60;;;20.30;99.90;;;;;;5149263;27;20226;-66
2023/08/04 00:27:58;;;;;;;0.32;0.32;;;20.30;99.90;;;;;;5151044;27;20198;-65
2023/08/04 00:30:26;;;;;;;0.30;0.30;;;20.30;99.90;;;;;;5148464;27;20203;-65
2023/08/04 00:32:54;;;;;;;0.40;0.40;;;20.30;99.90;;;;;;5154502;27;20198;-66
2023/08/04 00:35:21;;;;;;;0.40;0.40;;;20.20;99.90;;;;;;5132902;27;20251;-66
2023/08/04 00:37:49;;;;;;;0.40;0.40;;;20.20;99.90;;;;;;5132749;27;20199;-66
2023/08/04 00:40:17;;;;;;;0.45;0.45;;;20.20;99.90;;;;;;5152429;27;20538;-65
2023/08/04 00:42:44;;;;;;;0.45;0.45;;;20.20;99.90;;;;;;5148101;27;20216;-66
2023/08/04 00:45:11;;;;;;;0.47;0.45;;;20.20;99.90;;;;;;5141000;27;20694;-66
2023/08/04 00:47:39;;;;;;;0.50;0.50;;;20.20;99.90;;;;;;5154063;27;20190;-66
2023/08/04 00:50:09;;;;;;;0.40;0.40;;;20.20;99.90;;;;;;5153526;27;20225;-66
2023/08/04 00:52:38;;;;;;;0.50;0.50;;;20.20;99.90;;;;;;5150451;27;20262;-66
2023/08/04 00:55:09;;;;;;;0.63;0.63;;;20.20;99.90;;;;;;5153776;27;20194;-66
2023/08/04 00:57:37;;;;;;;0.50;0.50;;;20.20;99.90;;;;;;5152842;27;20261;-66
2023/08/04 01:00:05;;;;;;;1.00;0.60;;;20.20;99.90;;;;;;5133835;27;20288;-66
2023/08/04 01:02:35;;;;;;;0.38;0.38;;;20.20;99.90;;;;;;5152774;27;20379;-66
2023/08/04 01:05:03;;;;;;;0.55;0.55;;;20.20;99.90;;;;;;5143009;27;20219;-66
2023/08/04 01:07:36;;;;;;;0.40;0.40;;;20.10;99.90;;;;;;5151241;27;20190;-66
2023/08/04 01:10:12;;;;;;;0.40;0.40;;;20.20;99.90;;;;;;5151410;27;20202;-66
2023/08/04 01:12:47;;;;;;;0.45;0.45;;;20.10;99.90;;;;;;5147792;27;20198;-66
2023/08/04 01:15:17;;;;;;;0.43;0.43;;;20.10;99.90;;;;;;5155452;27;20201;-65
2023/08/04 01:17:44;;;;;;;0.50;0.50;;;20.10;99.90;;;;;;5156475;27;20198;-66
2023/08/04 01:20:11;;;;;;;0.30;0.30;;;20.10;99.90;;;;;;5144361;27;20202;-66
2023/08/04 01:22:40;;;;;;;0.40;0.40;;;20.00;99.90;;;;;;5157085;27;20262;-66
2023/08/04 01:25:08;;;;;;;0.50;0.50;;;20.10;99.90;;;;;;5142779;27;20263;-64
2023/08/04 01:27:39;;;;;;;0.40;0.40;;;20.00;99.90;;;;;;5157736;27;20186;-65
2023/08/04 01:30:11;;;;;;;0.82;0.80;;;20.10;99.90;;;;;;5154400;27;20221;-66
2023/08/04 01:32:38;;;;;;;0.65;0.65;;;20.00;99.90;;;;;;5134485;27;20219;-66
2023/08/04 01:35:07;;;;;;;0.75;0.60;;;20.00;99.90;;;;;;5149880;27;20289;-66
2023/08/04 01:37:34;;;;;;;0.68;0.68;;;20.00;99.90;;;;;;5153301;27;20194;-66
2023/08/04 01:40:03;;;;;;;0.80;0.63;;;20.00;99.90;;;;;;5132891;27;20243;-67
2023/08/04 01:42:30;;;;;;;0.45;0.45;;;19.90;99.90;;;;;;5132020;27;20198;-67
2023/08/04 01:44:57;;;;;;;0.50;0.50;;;19.90;99.90;;;;;;5152434;27;20191;-66
2023/08/04 01:47:24;;;;;;;1.00;0.50;;;19.90;99.90;;;;;;5150290;27;20190;-67
2023/08/04 01:49:51;;;;;;;0.50;0.50;;;19.90;99.90;;;;;;5147286;27;20210;-66
2023/08/04 01:52:18;;;;;;;0.50;0.40;;;19.90;99.90;;;;;;5153220;27;20258;-67
2023/08/04 01:54:45;;;;;;;0.40;0.40;;;19.90;99.90;;;;;;5131332;27;20618;-66
2023/08/04 01:57:14;;;;;;;6.40;0.70;;;19.80;99.90;;;;;;5146575;27;20607;-66
2023/08/04 01:59:41;;;;;;;0.50;0.50;;;19.80;99.90;;;;;;5149969;27;20656;-65
2023/08/04 02:02:08;;;;;;;0.65;0.60;;;19.80;99.90;;;;;;5148974;27;20198;-65
2023/08/04 02:04:35;;;;;;;0.60;0.60;;;19.80;99.90;;;;;;5131417;27;20274;-65
2023/08/04 02:07:03;;;;;;;0.50;0.50;;;19.70;99.90;;;;;;5134410;27;20248;-66
2023/08/04 02:09:33;;;;;;;1.10;0.82;;;19.70;99.90;;;;;;5126063;27;20217;-66
2023/08/04 02:12:02;;;;;;;0.70;0.63;;;19.70;99.90;;;;;;5134053;27;20213;-66
2023/08/04 02:14:31;;;;;;;0.55;0.55;;;19.70;99.90;;;;;;5152013;27;20202;-65
2023/08/04 02:16:58;;;;;;;0.60;0.50;;;19.80;99.90;;;;;;5146815;27;20195;-66
2023/08/04 02:19:25;;;;;;;0.50;0.50;;;19.80;99.90;;;;;;5132546;27;20201;-66
2023/08/04 02:21:52;;;;;;;0.43;0.43;;;19.70;99.90;;;;;;5152770;27;20195;-66
2023/08/04 02:24:19;;;;;;;0.80;0.80;;;19.80;99.90;;;;;;5142343;27;20262;-66
2023/08/04 02:26:47;;;;;;;0.60;0.60;;;19.80;99.90;;;;;;5133599;27;20252;-67
2023/08/04 02:29:14;;;;;;;0.80;0.68;;;19.80;99.90;;;;;;5131801;27;20218;-67
2023/08/04 02:31:43;;;;;;;0.52;0.52;;;19.90;99.90;;;;;;5145454;27;20601;-66
2023/08/04 02:34:10;;;;;;;0.50;0.50;;;19.90;99.90;;;;;;5133504;27;20190;-65
2023/08/04 02:36:37;;;;;;;0.50;0.50;;;19.90;99.90;;;;;;5152616;27;20198;-65
2023/08/04 02:39:04;;;;;;;0.40;0.40;;;19.90;99.90;;;;;;5146432;27;20194;-66
2023/08/04 02:41:31;;;;;;;0.50;0.50;;;19.90;99.90;;;;;;5152784;27;20205;-66
2023/08/04 02:43:58;;;;;;;0.50;0.50;;;19.80;99.90;;;;;;5152279;27;20201;-65
2023/08/04 02:46:25;;;;;;;0.50;0.50;;;19.80;99.90;;;;;;5148133;27;20247;-66
2023/08/04 02:48:56;;;;;;;0.40;0.40;;;19.80;99.90;;;;;;5151040;27;20233;-66
2023/08/04 02:51:23;;;;;;;0.60;0.60;;;19.80;99.90;;;;;;5151806;27;20273;-66
2023/08/04 02:53:51;;;;;;;0.50;0.50;;;19.80;99.90;;;;;;5148322;27;20653;-66
2023/08/04 02:56:19;;;;;;;0.75;0.75;;;19.80;99.90;;;;;;5133410;27;20539;-66
2023/08/04 02:58:48;;;;;;;0.82;0.63;;;19.80;99.90;;;;;;5149657;27;20549;-66
2023/08/04 03:01:15;;;;;;;0.73;0.70;;;19.80;99.90;;;;;;5145772;27;20194;-66
2023/08/04 03:03:42;;;;;;;0.50;0.50;;;19.80;99.90;;;;;;5150721;27;20277;-66
2023/08/04 03:06:11;;;;;;;0.50;0.50;;;19.70;99.90;;;;;;5151699;27;20226;-66
2023/08/04 03:08:38;;;;;;;0.70;0.70;;;19.70;99.90;;;;;;5128034;27;20211;-66
2023/08/04 03:11:09;;;;;;;0.60;0.60;;;19.70;99.90;;;;;;5150775;27;20251;-66
2023/08/04 03:13:36;;;;;;;0.73;0.52;;;19.80;99.90;;;;;;5143998;27;20277;-66
2023/08/04 03:16:04;;;;;;;1.52;0.70;;;19.80;99.90;;;;;;5146162;27;20187;-66
2023/08/04 03:18:31;;;;;;;1.10;0.70;;;19.70;99.90;;;;;;5149679;27;20194;-66
2023/08/04 03:21:02;;;;;;;0.80;0.80;;;19.80;99.90;;;;;;5131742;27;20255;-65
2023/08/04 03:23:34;;;;;;;0.60;0.60;;;19.80;99.90;;;;;;5125542;27;20293;-65
2023/08/04 03:26:01;;;;;;;0.65;0.65;;;19.80;99.90;;;;;;5147184;27;20186;-66
2023/08/04 03:28:32;;;;;;;0.70;0.70;;;19.80;99.90;;;;;;5146249;27;20199;-66
2023/08/04 03:30:59;;;;;;;0.52;0.52;;;19.80;99.90;;;;;;5146315;27;20198;-66
2023/08/04 03:33:26;;;;;;;1.92;0.85;;;19.80;99.90;;;;;;5148357;27;20193;-66
2023/08/04 03:35:53;;;;;;;0.70;0.70;;;19.80;99.90;;;;;;5151838;27;20195;-65
2023/08/04 03:38:21;;;;;;;1.00;0.90;;;19.80;99.90;;;;;;5146246;27;20607;-66
2023/08/04 03:40:49;;;;;;;0.90;0.70;;;19.80;99.90;;;;;;5131369;27;20253;-66
2023/08/04 03:43:18;;;;;;;1.58;0.70;;;19.90;99.90;;;;;;5148564;27;20187;-66
2023/08/04 03:45:45;;;;;;;0.80;0.80;;;19.90;99.90;;;;;;5149742;27;20199;-66
2023/08/04 03:48:13;;;;;;;0.80;0.80;;;19.90;99.90;;;;;;5149038;27;20716;-66
2023/08/04 03:50:40;;;;;;;0.60;0.60;;;19.90;99.90;;;;;;5146721;27;20198;-66
2023/08/04 03:53:07;;;;;;;0.60;0.60;;;19.90;99.90;;;;;;5149001;27;20537;-66
2023/08/04 03:55:34;;;;;;;0.90;0.90;;;19.90;99.90;;;;;;5148021;27;20250;-67
2023/08/04 03:58:03;;;;;;;0.68;0.68;;;19.90;99.90;;;;;;5143558;27;20885;-67
2023/08/04 04:00:31;;;;;;;0.93;0.70;;;19.90;99.90;;;;;;5134671;27;20243;-67
2023/08/04 04:02:58;;;;;;;0.60;0.60;;;19.90;99.90;;;;;;5153939;27;20576;-66
2023/08/04 04:05:25;;;;;;;0.60;0.60;;;19.90;99.90;;;;;;5149004;27;20233;-66
2023/08/04 04:07:52;;;;;;;0.65;0.65;;;20.00;99.90;;;;;;5155161;27;20194;-67
2023/08/04 04:10:19;;;;;;;0.80;0.80;;;20.00;99.90;;;;;;5153752;27;20278;-67
2023/08/04 04:12:46;;;;;;;0.77;0.77;;;20.00;99.90;;;;;;5143371;27;20179;-67
2023/08/04 04:15:14;;;;;;;0.80;0.80;;;20.10;99.90;;;;;;5134709;27;20195;-65
2023/08/04 04:17:41;;;;;;;0.68;0.68;;;20.10;99.90;;;;;;5153525;27;20210;-67
2023/08/04 04:20:09;;;;;;;0.60;0.60;;;20.10;99.90;;;;;;5148483;27;20726;-65
2023/08/04 04:22:36;;;;;;;0.70;0.70;;;20.10;99.90;;;;;;5137018;27;20724;-66
2023/08/04 04:25:03;;;;;;;0.75;0.75;;;20.20;99.90;;;;;;5133529;27;20289;-66
2023/08/04 04:27:30;;;;;;;0.77;0.60;;;20.20;99.90;;;;;;5148364;27;20711;-66
2023/08/04 04:29:58;;;;;;;0.60;0.60;;;20.20;99.90;;;;;;5133547;27;20210;-65
2023/08/04 04:32:26;;;;;;;0.80;0.80;;;20.20;99.90;;;;;;5153950;27;20199;-66
2023/08/04 04:34:53;;;;;;;1.10;0.80;;;20.20;99.90;;;;;;5148444;27;20634;-65
2023/08/04 04:37:20;;;;;;;1.65;1.00;;;20.30;99.90;;;;;;5154025;27;20190;-66
2023/08/04 04:39:47;;;;;;;0.90;0.90;;;20.20;99.90;;;;;;5153686;27;20962;-66
2023/08/04 04:42:16;;;;;;;0.80;0.80;;;20.30;99.90;;;;;;5147350;27;20215;-66
2023/08/04 04:44:43;;;;;;;0.80;0.80;;;20.30;99.90;;;;;;5152773;27;20198;-66
2023/08/04 04:47:11;;;;;;;1.00;0.90;;;20.30;99.90;;;;;;5154345;27;20190;-66
2023/08/04 04:49:39;;;;;;;0.80;0.80;;;20.30;99.90;;;;;;5146323;27;20183;-66
2023/08/04 04:52:07;;;;;;;1.33;1.00;;;20.30;99.90;;;;;;5155242;27;20194;-65
2023/08/04 04:54:34;;;;;;;1.33;0.90;;;20.30;99.90;;;;;;5135192;27;20277;-66
2023/08/04 04:57:01;;;;;;;0.90;0.90;;;20.30;99.90;;;;;;5148978;27;20190;-66
2023/08/04 04:59:28;;;;;;;0.90;0.90;;;20.30;99.90;;;;;;5153916;27;20561;-66
2023/08/04 05:01:55;;;;;;;0.80;0.80;;;20.40;99.90;;;;;;5154030;27;20676;-67
2023/08/04 05:04:22;;;;;;;2.13;1.08;;;20.40;99.90;;;;;;5149038;27;20221;-65
2023/08/04 05:06:51;;;;;;;0.85;0.85;;;20.40;99.90;;;;;;5153160;27;20223;-65
2023/08/04 05:09:18;;;;;;;2.78;1.25;;;20.40;99.90;;;;;;5138256;27;20615;-66
2023/08/04 05:11:45;;;;;;;1.00;1.00;;;20.40;99.90;;;;;;5147980;27;20207;-65
2023/08/04 05:14:12;;;;;;;1.05;1.05;;;20.40;99.90;;;;;;5120069;27;20203;-65
2023/08/04 05:16:40;;;;;;;1.38;0.95;;;20.40;99.90;;;;;;5146410;27;20546;-66
2023/08/04 05:19:07;;;;;;;4.07;1.10;;;20.40;99.90;;;;;;5151489;27;20645;-65
2023/08/04 05:21:34;;;;;;;1.75;0.80;;;20.40;99.90;;;;;;5153804;27;20194;-65
2023/08/04 05:24:03;;;;;;;1.40;1.00;;;20.40;99.90;;;;;;5148867;27;20196;-65
2023/08/04 05:26:33;;;;;;;1.80;1.10;;;20.50;99.90;;;;;;5152154;27;20194;-66
2023/08/04 05:29:03;;;;;;;1.17;0.90;;;20.50;99.90;;;;;;5154390;27;20202;-65
2023/08/04 05:31:30;;;;;;;0.95;0.95;;;20.50;99.90;;;;;;5149251;27;20232;-66
2023/08/04 05:33:57;;;;;;;0.98;0.90;;;20.60;99.90;;;;;;5152870;27;20227;-66
2023/08/04 05:36:24;;;;;;;1.17;1.10;;;20.60;99.90;;;;;;5130632;27;20199;-66
2023/08/04 05:38:51;;;;;;;1.15;1.10;;;20.60;99.90;;;;;;5153478;27;20720;-68
2023/08/04 05:41:20;;;;;;;1.17;1.17;;;20.60;99.90;;;;;;5149537;27;20195;-65
2023/08/04 05:43:50;;;;;;;1.10;1.00;;;20.60;99.90;;;;;;5153066;27;20243;-66
2023/08/04 05:46:17;;;;;;;5.45;1.00;;;20.70;99.90;;;;;;5149003;27;20595;-67
2023/08/04 05:48:44;;;;;;;0.93;0.93;;;20.70;99.90;;;;;;5132314;27;20194;-66
2023/08/04 05:51:11;;;;;;;2.72;0.90;;;20.70;99.90;;;;;;5151236;27;20619;-65
2023/08/04 05:53:39;;;;;;;0.80;0.80;;;20.80;99.90;;;;;;5153383;27;20190;-65
2023/08/04 05:56:06;;;;;;;1.02;0.90;;;20.80;99.90;;;;;;5131330;27;20285;-65
2023/08/04 05:58:34;;;;;;;0.80;0.80;;;20.80;99.90;;;;;;5154347;27;20290;-65
2023/08/04 06:01:01;;;;;;;1.42;1.00;;;20.80;99.90;;;;;;5131587;27;20231;-65
2023/08/04 06:03:28;;;;;;;1.15;1.15;;;20.90;99.90;;;;;;5131976;27;20206;-65
2023/08/04 06:05:55;;;;;;;1.38;1.13;;;20.90;99.90;;;;;;5133446;27;20226;-66
2023/08/04 06:08:24;;;;;;;1.10;1.08;;;20.90;99.90;;;;;;5150117;27;20186;-65
2023/08/04 06:10:51;;;;;;;1.58;1.20;;;21.00;99.90;;;;;;5147650;27;20211;-66
2023/08/04 06:13:18;;;;;;;1.05;0.93;;;21.00;99.90;;;;;;5152686;27;20657;-66
2023/08/04 06:15:47;;;;;;;1.20;1.10;;;21.00;99.90;;;;;;5148356;27;20269;-66
2023/08/04 06:18:17;;;;;;;0.90;0.90;;;21.00;99.90;;;;;;5150446;27;20621;-66
2023/08/04 06:20:47;;;;;;;1.00;1.00;;;21.10;99.90;;;;;;5153288;27;20190;-66
2023/08/04 06:23:14;;;;;;;1.10;1.00;;;21.10;99.90;;;;;;5145496;27;20194;-67
2023/08/04 06:25:41;;;;;;;1.40;1.17;;;21.10;99.90;;;;;;5148500;27;20205;-65
2023/08/04 06:28:08;;;;;;;1.27;1.15;;;21.20;99.90;;;;;;5145725;27;20693;-66
2023/08/04 06:30:36;;;;;;;1.23;1.13;;;21.20;99.90;;;;;;5146826;27;20677;-66
2023/08/04 06:33:06;;;;;;;1.13;1.02;;;21.20;99.90;;;;;;5150947;27;20191;-66
2023/08/04 06:35:35;;;;;;;1.38;1.20;;;21.30;99.90;;;;;;5127187;27;20209;-66
2023/08/04 06:38:02;;;;;;;1.00;1.00;;;21.30;99.90;;;;;;5149242;27;20186;-65
2023/08/04 06:40:30;;;;;;;1.67;1.27;;;21.30;99.90;;;;;;5151267;27;20195;-66
2023/08/04 06:42:57;;;;;;;2.25;1.10;;;21.40;99.90;;;;;;5131900;27;20275;-66
2023/08/04 06:45:24;;;;;;;1.15;1.05;;;21.40;99.90;;;;;;5141479;27;20222;-65
2023/08/04 06:47:51;;;;;;;1.65;1.35;;;21.40;99.90;;;;;;5130723;27;20205;-66
2023/08/04 06:50:19;;;;;;;1.80;1.23;;;21.50;99.90;;;;;;5152299;27;20202;-65
2023/08/04 06:52:47;;;;;;;1.15;1.00;;;21.60;99.90;;;;;;5129257;27;20190;-65
2023/08/04 06:55:14;;;;;;;1.25;0.90;;;21.60;99.90;;;;;;5150971;27;20198;-65
2023/08/04 06:57:41;;;;;;;2.50;1.27;;;21.60;99.90;;;;;;5151522;27;20554;-66
2023/08/04 07:00:10;;;;;;;2.95;1.10;;;21.70;99.90;;;;;;5142867;27;20274;-66
2023/08/04 07:02:37;;;;;;;1.50;1.30;;;21.70;99.90;;;;;;5148027;27;20198;-66
2023/08/04 07:05:04;;;;;;;1.42;1.00;;;21.80;99.90;;;;;;5151096;27;20286;-65
2023/08/04 07:07:33;;;;;;;1.23;1.13;;;21.80;99.90;;;;;;5146056;27;20291;-66
2023/08/04 07:10:00;;;;;;;1.85;1.40;;;21.80;99.90;;;;;;5126621;27;20606;-65
2023/08/04 07:12:27;;;;;;;1.95;1.20;;;21.90;99.90;;;;;;5147649;27;20198;-66
2023/08/04 07:14:54;;;;;;;1.20;1.10;;;22.00;99.90;;;;;;5148587;27;20198;-66
2023/08/04 07:17:21;;;;;;;1.40;1.10;;;22.00;99.90;;;;;;5149398;27;20269;-66
2023/08/04 07:19:49;;;;;;;1.55;1.40;;;22.00;99.90;;;;;;5148153;27;20198;-66
2023/08/04 07:22:16;;;;;;;1.10;1.10;;;22.00;99.90;;;;;;5146054;27;20313;-66
2023/08/04 07:24:46;;;;;;;1.27;1.00;;;22.00;99.90;;;;;;5150689;27;20194;-65
2023/08/04 07:27:14;;;;;;;2.30;1.00;;;22.10;99.90;;;;;;5150806;27;20195;-66
2023/08/04 07:29:41;;;;;;;1.40;1.30;;;22.10;99.90;;;;;;5145075;27;20187;-67
2023/08/04 07:32:08;;;;;;;0.90;0.90;;;22.10;99.90;;;;;;5148667;27;20191;-66
2023/08/04 07:34:35;;;;;;;1.20;1.10;;;22.10;99.90;;;;;;5144826;27;20191;-66
2023/08/04 07:37:04;;;;;;;1.65;1.10;;;22.20;99.90;;;;;;5150206;27;20194;-67
2023/08/04 07:39:31;;;;;;;1.27;1.20;;;22.30;99.90;;;;;;5151024;27;20216;-66
2023/08/04 07:42:02;;;;;;;3.17;1.00;;;22.40;99.90;;;;;;5144494;27;20191;-66
2023/08/04 07:44:30;;;;;;;1.38;1.27;;;22.40;99.90;;;;;;5142860;27;20223;-65
2023/08/04 07:46:58;;;;;;;1.40;1.02;;;22.50;99.90;;;;;;5151053;27;20213;-67
2023/08/04 07:49:30;;;;;;;1.00;1.00;;;22.50;99.90;;;;;;5145269;27;20243;-66
2023/08/04 07:51:57;;;;;;;1.00;1.00;;;22.50;99.90;;;;;;5144706;27;20241;-66
2023/08/04 07:54:25;;;;;;;1.17;1.10;;;22.60;99.90;;;;;;5147723;27;20645;-65
2023/08/04 07:56:52;;;;;;;1.35;1.13;;;22.70;99.90;;;;;;5144084;27;20637;-66
2023/08/04 07:59:21;;;;;;;0.82;0.82;;;22.70;99.90;;;;;;5149346;27;20202;-66
2023/08/04 08:01:48;;;;;;;1.10;1.00;;;22.70;99.90;;;;;;5150543;27;20194;-65
2023/08/04 08:04:15;;;;;;;0.80;0.80;;;22.80;99.90;;;;;;5135415;27;20207;-66
2023/08/04 08:06:44;;;;;;;0.73;0.73;;;22.80;99.90;;;;;;5148783;27;20249;-66
2023/08/04 08:09:17;;;;;;;0.80;0.80;;;22.80;99.90;;;;;;5143822;27;20198;-66
2023/08/04 08:11:44;;;;;;;1.10;1.10;;;22.80;99.90;;;;;;5147605;27;20258;-66
2023/08/04 08:14:11;;;;;;;1.35;0.70;;;22.90;99.90;;;;;;5145063;27;21025;-66
2023/08/04 08:16:40;;;;;;;1.52;1.20;;;22.80;99.90;;;;;;5143127;27;20251;-66
2023/08/04 08:19:09;;;;;;;1.90;1.15;;;22.80;99.90;;;;;;5131597;27;20592;-66
2023/08/04 08:21:36;;;;;;;1.00;1.00;;;22.80;99.90;;;;;;5150409;27;20239;-67
2023/08/04 08:24:04;;;;;;;1.42;0.95;;;22.80;99.90;;;;;;5145978;27;20243;-66
2023/08/04 08:26:31;;;;;;;3.10;1.30;;;22.90;99.90;;;;;;5131861;27;20255;-66
2023/08/04 08:28:58;;;;;;;2.25;1.40;;;22.90;99.90;;;;;;5132034;27;20311;-66
2023/08/04 08:31:25;;;;;;;0.88;0.88;;;22.90;99.90;;;;;;5124251;27;20211;-66
2023/08/04 08:33:54;;;;;;;1.30;1.20;;;23.00;99.90;;;;;;5150402;27;20205;-66
2023/08/04 08:36:21;;;;;;;1.08;0.98;;;23.00;99.90;;;;;;5147199;27;20645;-66
2023/08/04 08:38:48;;;;;;;0.77;0.77;;;23.10;99.90;;;;;;5145261;27;20199;-66
2023/08/04 08:41:15;;;;;;;1.55;1.02;;;23.20;99.90;;;;;;5148014;27;20201;-66
2023/08/04 08:43:44;;;;;;;1.15;1.10;;;23.20;99.90;;;;;;5149067;27;20661;-65
2023/08/04 08:46:13;;;;;;;1.20;1.20;;;23.30;99.90;;;;;;5132336;27;20205;-65
2023/08/04 08:48:45;;;;;;;1.10;1.10;;;23.50;99.90;;;;;;5153699;27;20249;-65
2023/08/04 08:51:19;;;;;;;1.10;1.10;;;23.40;99.90;;;;;;5153951;27;20320;-66
2023/08/04 08:53:50;;;;;;;1.02;0.90;;;23.50;99.90;;;;;;5147730;27;20212;-66
2023/08/04 08:56:18;;;;;;;1.05;1.05;;;23.60;99.90;;;;;;5153900;27;20219;-66
2023/08/04 08:58:45;;;;;;;1.02;1.02;;;23.60;99.90;;;;;;5155024;27;20680;-66
2023/08/04 09:01:13;;;;;;;0.88;0.88;;;23.60;99.90;;;;;;5128115;27;20199;-66
2023/08/04 09:03:40;;;;;;;1.52;1.17;;;23.60;99.90;;;;;;5153670;27;20255;-66
2023/08/04 09:06:07;;;;;;;1.33;0.95;;;23.60;99.90;;;;;;5154760;27;20234;-65
2023/08/04 09:08:38;;;;;;;1.05;1.00;;;23.60;99.90;;;;;;5143953;27;20190;-65
2023/08/04 09:11:05;;;;;;;1.30;1.20;;;23.60;99.90;;;;;;5149321;27;20202;-65
2023/08/04 09:13:32;;;;;;;0.85;0.85;;;23.60;99.90;;;;;;5148074;27;20195;-65
2023/08/04 09:15:59;;;;;;;1.27;1.10;;;23.60;99.90;;;;;;5151184;27;20198;-65
2023/08/04 09:18:28;;;;;;;0.80;0.80;;;23.80;99.90;;;;;;5154145;27;20231;-66
2023/08/04 09:21:00;;;;;;;0.65;0.65;;;23.90;99.90;;;;;;5132000;27;20627;-66
2023/08/04 09:23:29;;;;;;;2.08;1.02;;;24.00;99.90;;;;;;5135531;27;20195;-66
2023/08/04 09:26:00;;;;;;;1.80;1.17;;;24.00;99.90;;;;;;5151254;27;20218;-66
2023/08/04 09:28:28;;;;;;;4.25;1.20;;;24.00;99.90;;;;;;5148576;27;20198;-66
2023/08/04 09:31:02;;;;;;;1.08;1.00;;;24.00;99.90;;;;;;5149505;27;20194;-66
2023/08/04 09:33:30;;;;;;;0.90;0.90;;;24.00;99.90;;;;;;5153784;27;20189;-65
2023/08/04 09:36:04;;;;;;;0.90;0.90;;;24.10;99.90;;;;;;5148160;27;20240;-66
2023/08/04 09:38:31;;;;;;;0.85;0.85;;;24.20;99.90;;;;;;5154084;27;20258;-65
2023/08/04 09:41:03;;;;;;;1.20;1.10;;;24.20;99.90;;;;;;5152327;27;21136;-66
2023/08/04 09:43:30;;;;;;;2.40;0.90;;;24.20;99.90;;;;;;5132445;27;20191;-66
2023/08/04 09:45:59;;;;;;;0.93;0.93;;;24.30;99.90;;;;;;5134344;27;20207;-66
2023/08/04 09:48:27;;;;;;;1.08;1.08;;;24.40;99.90;;;;;;5152148;27;20190;-67
2023/08/04 09:51:06;;;;;;;1.00;1.00;;;24.40;99.90;;;;;;5147821;27;20198;-66
2023/08/04 09:53:36;;;;;;;3.70;1.15;;;24.40;99.80;;;;;;5152018;27;20642;-65
2023/08/04 09:56:06;;;;;;;0.80;0.80;;;24.30;99.70;;;;;;5150565;27;20193;-65
2023/08/04 09:58:36;;;;;;;2.05;0.95;;;24.40;99.90;;;;;;5149431;27;20194;-66
2023/08/04 10:01:03;;;;;;;1.40;1.30;;;24.30;99.80;;;;;;5151704;27;20197;-66
2023/08/04 10:03:31;;;;;;;1.25;1.08;;;24.30;99.60;;;;;;5150386;27;20187;-66
2023/08/04 10:06:00;;;;;;;1.20;1.10;;;24.30;99.30;;;;;;5149910;27;20234;-67
2023/08/04 10:08:29;;;;;;;1.35;0.90;;;24.30;99.40;;;;;;5153094;27;20247;-67
2023/08/04 10:10:58;;;;;;;0.93;0.88;;;24.30;99.40;;;;;;5141961;27;20331;-67
2023/08/04 10:13:30;;;;;;;0.90;0.90;;;24.30;99.50;;;;;;5151220;27;20210;-67
2023/08/04 10:15:59;;;;;;;0.90;0.90;;;24.20;99.80;;;;;;5145674;27;20194;-66
2023/08/04 10:18:29;;;;;;;0.73;0.70;;;24.20;99.20;;;;;;5144912;27;20191;-67
2023/08/04 10:21:01;;;;;;;0.90;0.90;;;24.20;99.10;;;;;;5152092;27;20214;-66
2023/08/04 10:23:31;;;;;;;1.75;0.90;;;24.10;99.10;;;;;;5152376;27;20190;-66
2023/08/04 10:26:02;;;;;;;0.95;0.95;;;24.20;99.20;;;;;;5130190;27;20195;-67
2023/08/04 10:28:33;;;;;;;0.90;0.90;;;24.30;99.20;;;;;;5130705;27;20582;-64
2023/08/04 10:31:04;;;;;;;1.13;1.10;;;24.40;99.10;;;;;;5151580;27;20281;-65
2023/08/04 10:33:31;;;;;;;1.13;1.00;;;24.40;99.10;;;;;;5142924;27;20206;-65
2023/08/04 10:36:09;;;;;;;1.02;1.02;;;24.40;99.10;;;;;;5152872;27;20233;-65
2023/08/04 10:38:46;;;;;;;1.67;1.30;;;24.40;98.80;;;;;;5150850;27;20187;-66
2023/08/04 10:41:14;;;;;;;1.65;1.10;;;24.40;98.40;;;;;;5145113;27;20198;-66
2023/08/04 10:43:59;;;;;;;1.00;1.00;;;24.30;98.40;;;;;;5152377;27;20201;-66
2023/08/04 10:46:26;;;;;;;2.13;1.02;;;24.30;98.60;;;;;;5127192;27;20269;-65
2023/08/04 10:48:53;;;;;;;0.88;0.88;;;24.30;98.60;;;;;;5143778;27;20255;-66
2023/08/04 10:51:22;;;;;;;1.80;1.20;;;24.20;98.80;;;;;;5150819;27;20278;-66
2023/08/04 10:53:51;;;;;;;1.25;1.20;;;24.20;98.80;;;;;;5140106;27;20217;-66
2023/08/04 10:56:22;;;;;;;1.27;1.10;;;24.30;98.60;;;;;;5151774;27;20205;-67
2023/08/04 10:58:50;;;;;;;1.17;1.10;;;24.50;98.60;;;;;;5152412;27;20685;-67
2023/08/04 11:01:17;;;;;;;0.88;0.88;;;24.50;98.60;;;;;;5126693;27;20218;-66
2023/08/04 11:03:48;;;;;;;0.80;0.80;;;24.60;98.80;;;;;;5151393;27;20190;-66
2023/08/04 11:06:17;;;;;;;0.88;0.75;;;24.60;98.80;;;;;;5133730;27;20675;-67
2023/08/04 11:08:46;;;;;;;0.75;0.75;;;24.60;98.80;;;;;;5145090;27;20264;-66
2023/08/04 11:11:13;;;;;;;0.93;0.90;;;24.60;98.80;;;;;;5148984;27;20194;-66
2023/08/04 11:13:40;;;;;;;1.13;1.00;;;24.70;98.90;;;;;;5148597;27;20210;-66
2023/08/04 11:16:09;;;;;;;2.72;1.30;;;24.70;98.70;;;;;;5128097;27;20202;-66
2023/08/04 11:18:37;;;;;;;1.30;1.20;;;24.70;98.50;;;;;;5151709;27;20190;-66
2023/08/04 11:21:04;;;;;;;1.05;0.95;;;24.80;98.50;;;;;;5133061;27;20198;-67
2023/08/04 11:23:32;;;;;;;0.90;0.90;;;24.80;98.40;;;;;;5145824;27;20645;-67
2023/08/04 11:26:02;;;;;;;0.80;0.80;;;25.00;98.60;;;;;;5147178;27;20658;-67
2023/08/04 11:28:29;;;;;;;1.00;0.90;;;25.00;98.20;;;;;;5147283;27;20296;-66
2023/08/04 11:31:04;;;;;;;0.90;0.90;;;25.00;97.80;;;;;;5129799;27;20516;-67
2023/08/04 11:33:33;;;;;;;2.03;0.80;;;25.00;97.80;;;;;;5151344;27;20197;-67
2023/08/04 11:36:02;;;;;;;1.00;1.00;;;24.90;97.70;;;;;;5146361;27;20186;-67
2023/08/04 11:38:29;;;;;;;3.65;1.00;;;24.90;97.80;;;;;;5150844;27;20205;-66
2023/08/04 11:40:59;;;;;;;0.95;0.95;;;24.90;97.90;;;;;;5148970;27;20722;-66
2023/08/04 11:43:27;;;;;;;1.02;1.02;;;24.90;97.90;;;;;;5145621;27;20205;-67
2023/08/04 11:45:57;;;;;;;1.00;0.90;;;25.10;97.90;;;;;;5132801;27;20542;-66
2023/08/04 11:48:27;;;;;;;0.90;0.90;;;25.20;97.50;;;;;;5149414;27;20187;-66
2023/08/04 11:50:57;;;;;;;1.10;1.10;;;25.30;97.10;;;;;;5145854;27;20287;-66
2023/08/04 11:53:24;;;;;;;0.77;0.77;;;25.30;96.50;;;;;;5150678;27;20206;-66
2023/08/04 11:55:59;;;;;;;1.30;1.20;;;25.30;96.40;;;;;;5151770;27;20229;-66
2023/08/04 11:58:35;;;;;;;0.80;0.80;;;25.30;96.40;;;;;;5144639;27;20213;-66
2023/08/04 12:01:04;;;;;;;2.22;0.82;;;25.30;96.40;;;;;;5147367;27;20259;-67
2023/08/04 12:03:44;;;;;;;1.00;1.00;;;25.30;96.70;;;;;;5148883;27;20214;-66
2023/08/04 12:06:17;;;;;;;0.98;0.98;;;25.30;95.80;;;;;;5124904;27;20233;-66
2023/08/04 12:08:49;;;;;;;1.10;1.10;;;25.40;95.80;;;;;;5151263;27;20290;-66
2023/08/04 12:11:16;;;;;;;1.02;1.02;;;25.30;96.00;;;;;;5147545;27;20214;-66
2023/08/04 12:13:43;;;;;;;1.00;1.00;;;25.30;96.10;;;;;;5146427;27;20203;-66
2023/08/04 12:16:12;;;;;;;0.80;0.80;;;25.30;96.10;;;;;;5132710;27;20653;-66
2023/08/04 12:18:40;;;;;;;1.05;1.05;;;25.30;96.10;;;;;;5148021;27;20195;-66
2023/08/04 12:21:10;;;;;;;1.17;1.17;;;25.40;95.90;;;;;;5146681;27;20224;-65
2023/08/04 12:23:38;;;;;;;0.90;0.90;;;25.40;95.90;;;;;;5146087;27;20591;-66
2023/08/04 12:26:06;;;;;;;1.20;1.10;;;25.50;95.80;;;;;;5150306;27;20653;-65
2023/08/04 12:28:33;;;;;;;1.75;1.00;;;25.50;95.30;;;;;;5153805;27;20205;-66
2023/08/04 12:31:00;;;;;;;0.70;0.70;;;25.60;95.40;;;;;;5154051;27;20209;-67
2023/08/04 12:33:27;;;;;;;0.80;0.80;;;25.60;95.50;;;;;;5132375;27;20382;-66
2023/08/04 12:35:54;;;;;;;1.20;1.10;;;25.70;95.30;;;;;;5153166;27;20186;-66
2023/08/04 12:38:21;;;;;;;0.90;0.90;;;25.70;95.30;;;;;;5154239;27;20191;-66
2023/08/04 12:40:50;;;;;;;0.82;0.82;;;25.80;95.30;;;;;;5150156;27;20203;-66
2023/08/04 12:43:17;;;;;;;0.88;0.88;;;25.80;95.30;;;;;;5154466;27;20194;-66
2023/08/04 12:45:44;;;;;;;0.80;0.80;;;25.80;95.30;;;;;;5154670;27;20206;-67
2023/08/04 12:48:11;;;;;;;1.00;1.00;;;25.90;95.30;;;;;;5143636;27;20190;-66
2023/08/04 12:50:38;;;;;;;0.95;0.95;;;25.90;95.00;;;;;;5154816;27;20294;-65
2023/08/04 12:53:05;;;;;;;0.80;0.80;;;26.00;95.10;;;;;;5132968;27;20211;-65